PWSweather.com
Personal Weather Stations
Station Observations
NBW76
Silver Creek, North Bend, WA 98065

Silver CreekNorth Bend, WA 98065

Lat: 47.4993612, Lon: -121.7783245

Elevation: 443

Station Type: Davisd VP2 + Solar + UV + Webcam

www.northbendweather.com

High Low Average
Temperature 52.0°F11.1°C 42.7°F5.9°C 46.8°F8.2°C
Dew Point 42.9°F6.1°C 37.7°F3.2°C 40.8°F4.9°C
Winds 4.6 mph 7.4 kmh Calm Calm 1.0 mph S1.6 kmh S
Wind Gusts 8.1 mph13.0 kmh -- 2.0 mph3.2 kmh
Humidity 89% 67% 80%
Pressure 30.17 in1021.7 mb 30.11 in1019.6 mb -
Precipitation 0.00 in0.0 mm - -
Hour Temp Dew Point Humidity Winds Wind Gusts Pressure Precip Precip Rate Daily Precip Total
12:00 AM 44.5°F6.9°C 39.7°F4.3°C 83% Calm Calm -- 30.16 in1021.3 mb - 0.00 in0.0 mm 0.00 in0.0 mm
12:10 AM 44.2°F6.8°C 39.7°F4.3°C 84% Calm Calm -- 30.16 in1021.3 mb - 0.00 in0.0 mm 0.00 in0.0 mm
12:20 AM 44.0°F6.7°C 39.5°F4.2°C 84% Calm Calm -- 30.16 in1021.3 mb - 0.00 in0.0 mm 0.00 in0.0 mm
12:30 AM 43.7°F6.5°C 39.5°F4.2°C 85% Calm Calm -- 30.16 in1021.3 mb - 0.00 in0.0 mm 0.00 in0.0 mm
12:40 AM 43.3°F6.3°C 39.1°F3.9°C 85% Calm Calm -- 30.16 in1021.3 mb - 0.00 in0.0 mm 0.00 in0.0 mm
12:50 AM 43.0°F6.1°C 38.8°F3.8°C 85% Calm Calm -- 30.16 in1021.3 mb - 0.00 in0.0 mm 0.00 in0.0 mm
01:00 AM 42.8°F6.0°C 38.9°F3.8°C 86% Calm Calm -- 30.16 in1021.3 mb - 0.00 in0.0 mm 0.00 in0.0 mm
01:10 AM 42.7°F5.9°C 38.8°F3.8°C 86% Calm Calm -- 30.16 in1021.3 mb - 0.00 in0.0 mm 0.00 in0.0 mm
01:20 AM 42.9°F6.1°C 39.3°F4.1°C 87% Calm Calm -- 30.16 in1021.3 mb - 0.00 in0.0 mm 0.00 in0.0 mm
01:30 AM 42.9°F6.1°C 39.3°F4.1°C 87% Calm Calm -- 30.16 in1021.3 mb - 0.00 in0.0 mm 0.00 in0.0 mm
01:40 AM 43.0°F6.1°C 39.3°F4.1°C 87% Calm Calm -- 30.17 in1021.7 mb - 0.00 in0.0 mm 0.00 in0.0 mm
01:50 AM 43.0°F6.1°C 39.4°F4.1°C 87% Calm Calm -- 30.16 in1021.3 mb - 0.00 in0.0 mm 0.00 in0.0 mm
02:00 AM 43.1°F6.2°C 39.5°F4.2°C 87% Calm Calm -- 30.17 in1021.7 mb - 0.00 in0.0 mm 0.00 in0.0 mm
02:10 AM 43.1°F6.2°C 39.5°F4.2°C 87% Calm Calm -- 30.17 in1021.7 mb - 0.00 in0.0 mm 0.00 in0.0 mm
02:20 AM 43.1°F6.2°C 39.5°F4.2°C 87% Calm Calm -- 30.17 in1021.7 mb - 0.00 in0.0 mm 0.00 in0.0 mm
02:30 AM 43.3°F6.3°C 39.7°F4.3°C 87% Calm Calm -- 30.17 in1021.7 mb - 0.00 in0.0 mm 0.00 in0.0 mm
02:40 AM 43.4°F6.3°C 39.8°F4.3°C 87% Calm Calm -- 30.17 in1021.7 mb - 0.00 in0.0 mm 0.00 in0.0 mm
02:50 AM 43.4°F6.3°C 39.8°F4.3°C 87% Calm Calm -- 30.17 in1021.7 mb - 0.00 in0.0 mm 0.00 in0.0 mm
03:00 AM 43.5°F6.4°C 39.9°F4.4°C 87% Calm Calm -- 30.16 in1021.3 mb - 0.00 in0.0 mm 0.00 in0.0 mm
03:10 AM 43.6°F6.4°C 40.0°F4.4°C 87% Calm Calm -- 30.16 in1021.3 mb - 0.00 in0.0 mm 0.00 in0.0 mm
03:20 AM 43.7°F6.5°C 39.8°F4.3°C 86% Calm Calm -- 30.16 in1021.3 mb - 0.00 in0.0 mm 0.00 in0.0 mm
03:30 AM 43.8°F6.6°C 39.9°F4.4°C 86% Calm Calm -- 30.16 in1021.3 mb - 0.00 in0.0 mm 0.00 in0.0 mm
03:40 AM 43.9°F6.6°C 40.0°F4.4°C 86% Calm Calm -- 30.16 in1021.3 mb - 0.00 in0.0 mm 0.00 in0.0 mm
03:50 AM 43.9°F6.6°C 39.7°F4.3°C 85% Calm Calm -- 30.16 in1021.3 mb - 0.00 in0.0 mm 0.00 in0.0 mm
04:00 AM 43.9°F6.6°C 39.7°F4.3°C 85% Calm Calm -- 30.16 in1021.3 mb - 0.00 in0.0 mm 0.00 in0.0 mm
04:10 AM 43.9°F6.6°C 39.7°F4.3°C 85% Calm Calm -- 30.15 in1021.0 mb - 0.00 in0.0 mm 0.00 in0.0 mm
04:20 AM 43.9°F6.6°C 39.7°F4.3°C 85% Calm Calm -- 30.15 in1021.0 mb - 0.00 in0.0 mm 0.00 in0.0 mm
04:30 AM 43.8°F6.6°C 39.9°F4.4°C 86% Calm Calm -- 30.16 in1021.3 mb - 0.00 in0.0 mm 0.00 in0.0 mm
04:40 AM 43.7°F6.5°C 39.8°F4.3°C 86% Calm Calm -- 30.16 in1021.3 mb - 0.00 in0.0 mm 0.00 in0.0 mm
04:50 AM 43.7°F6.5°C 39.7°F4.3°C 86% Calm Calm -- 30.16 in1021.3 mb - 0.00 in0.0 mm 0.00 in0.0 mm
05:00 AM 43.7°F6.5°C 39.8°F4.3°C 86% Calm Calm -- 30.16 in1021.3 mb - 0.00 in0.0 mm 0.00 in0.0 mm
05:10 AM 43.8°F6.6°C 39.9°F4.4°C 86% Calm Calm 2.3 mph3.7 kmh 30.16 in1021.3 mb - 0.00 in0.0 mm 0.00 in0.0 mm
05:20 AM 43.8°F6.6°C 39.9°F4.4°C 86% Calm Calm -- 30.16 in1021.3 mb - 0.00 in0.0 mm 0.00 in0.0 mm
05:30 AM 43.8°F6.6°C 39.9°F4.4°C 86% Calm Calm 1.2 mph1.9 kmh 30.16 in1021.3 mb - 0.00 in0.0 mm 0.00 in0.0 mm
05:40 AM 43.8°F6.6°C 39.9°F4.4°C 86% Calm Calm 1.2 mph1.9 kmh 30.15 in1021.0 mb - 0.00 in0.0 mm 0.00 in0.0 mm
05:50 AM 43.8°F6.6°C 39.9°F4.4°C 86% Calm Calm -- 30.16 in1021.3 mb - 0.00 in0.0 mm 0.00 in0.0 mm
06:00 AM 43.7°F6.5°C 39.8°F4.3°C 86% Calm Calm -- 30.15 in1021.0 mb - 0.00 in0.0 mm 0.00 in0.0 mm
06:10 AM 43.6°F6.4°C 39.7°F4.3°C 86% 1.2 mph E1.9 kmh E 2.3 mph3.7 kmh 30.15 in1021.0 mb - 0.00 in0.0 mm 0.00 in0.0 mm
06:20 AM 43.7°F6.5°C 39.8°F4.3°C 86% Calm Calm -- 30.15 in1021.0 mb - 0.00 in0.0 mm 0.00 in0.0 mm
06:30 AM 43.7°F6.5°C 39.8°F4.3°C 86% Calm Calm -- 30.15 in1021.0 mb - 0.00 in0.0 mm 0.00 in0.0 mm
06:40 AM 43.6°F6.4°C 40.0°F4.4°C 87% Calm Calm -- 30.15 in1021.0 mb - 0.00 in0.0 mm 0.00 in0.0 mm
06:50 AM 43.6°F6.4°C 40.0°F4.4°C 87% Calm Calm -- 30.15 in1021.0 mb - 0.00 in0.0 mm 0.00 in0.0 mm
07:00 AM 43.5°F6.4°C 39.9°F4.4°C 87% Calm Calm -- 30.15 in1021.0 mb - 0.00 in0.0 mm 0.00 in0.0 mm
07:10 AM 43.4°F6.3°C 40.1°F4.5°C 88% Calm Calm -- 30.15 in1021.0 mb - 0.00 in0.0 mm 0.00 in0.0 mm
07:20 AM 43.3°F6.3°C 40.0°F4.4°C 88% Calm Calm -- 30.15 in1021.0 mb - 0.00 in0.0 mm 0.00 in0.0 mm
07:30 AM 43.2°F6.2°C 39.9°F4.4°C 88% Calm Calm -- 30.16 in1021.3 mb - 0.00 in0.0 mm 0.00 in0.0 mm
07:40 AM 43.2°F6.2°C 39.9°F4.4°C 88% Calm Calm -- 30.16 in1021.3 mb - 0.00 in0.0 mm 0.00 in0.0 mm
07:50 AM 43.3°F6.3°C 40.0°F4.4°C 88% Calm Calm -- 30.16 in1021.3 mb - 0.00 in0.0 mm 0.00 in0.0 mm
08:00 AM 43.4°F6.3°C 40.1°F4.5°C 88% Calm Calm -- 30.16 in1021.3 mb - 0.00 in0.0 mm 0.00 in0.0 mm
08:10 AM 43.6°F6.4°C 40.6°F4.8°C 89% Calm Calm -- 30.16 in1021.3 mb - 0.00 in0.0 mm 0.00 in0.0 mm
08:20 AM 43.7°F6.5°C 40.7°F4.8°C 89% Calm Calm -- 30.16 in1021.3 mb - 0.00 in0.0 mm 0.00 in0.0 mm
08:30 AM 43.7°F6.5°C 40.4°F4.7°C 88% 1.2 mph E1.9 kmh E 1.2 mph1.9 kmh 30.16 in1021.3 mb - 0.00 in0.0 mm 0.00 in0.0 mm
08:40 AM 44.0°F6.7°C 40.7°F4.8°C 88% Calm Calm 1.2 mph1.9 kmh 30.16 in1021.3 mb - 0.00 in0.0 mm 0.00 in0.0 mm
08:50 AM 44.3°F6.8°C 41.0°F5.0°C 88% 1.2 mph E1.9 kmh E 2.3 mph3.7 kmh 30.16 in1021.3 mb - 0.00 in0.0 mm 0.00 in0.0 mm
09:00 AM 44.5°F6.9°C 41.2°F5.1°C 88% 1.2 mph E1.9 kmh E 2.3 mph3.7 kmh 30.16 in1021.3 mb - 0.00 in0.0 mm 0.00 in0.0 mm
09:10 AM 44.7°F7.1°C 41.1°F5.1°C 87% Calm Calm -- 30.16 in1021.3 mb - 0.00 in0.0 mm 0.00 in0.0 mm
09:20 AM 45.3°F7.4°C 41.7°F5.4°C 87% Calm Calm 1.2 mph1.9 kmh 30.16 in1021.3 mb - 0.00 in0.0 mm 0.00 in0.0 mm
09:30 AM 45.3°F7.4°C 41.4°F5.2°C 86% Calm Calm -- 30.16 in1021.3 mb - 0.00 in0.0 mm 0.00 in0.0 mm
09:40 AM 45.6°F7.6°C 41.4°F5.2°C 85% Calm Calm -- 30.16 in1021.3 mb - 0.00 in0.0 mm 0.00 in0.0 mm
09:50 AM 46.0°F7.8°C 41.7°F5.4°C 85% Calm Calm -- 30.16 in1021.3 mb - 0.00 in0.0 mm 0.00 in0.0 mm
10:00 AM 46.3°F7.9°C 41.7°F5.4°C 84% 1.2 mph E1.9 kmh E 1.2 mph1.9 kmh 30.16 in1021.3 mb - 0.00 in0.0 mm 0.00 in0.0 mm
10:10 AM 46.7°F8.2°C 41.8°F5.4°C 83% Calm Calm 2.3 mph3.7 kmh 30.16 in1021.3 mb - 0.00 in0.0 mm 0.00 in0.0 mm
10:20 AM 46.8°F8.2°C 41.6°F5.3°C 82% 2.3 mph E3.7 kmh E 3.5 mph5.6 kmh 30.16 in1021.3 mb - 0.00 in0.0 mm 0.00 in0.0 mm
10:30 AM 47.0°F8.3°C 41.8°F5.4°C 82% 1.2 mph E1.9 kmh E 2.3 mph3.7 kmh 30.16 in1021.3 mb - 0.00 in0.0 mm 0.00 in0.0 mm
10:40 AM 47.4°F8.6°C 41.9°F5.5°C 81% 2.3 mph E3.7 kmh E 3.5 mph5.6 kmh 30.16 in1021.3 mb - 0.00 in0.0 mm 0.00 in0.0 mm
10:50 AM 47.6°F8.7°C 42.1°F5.6°C 81% 2.3 mph E3.7 kmh E 3.5 mph5.6 kmh 30.16 in1021.3 mb - 0.00 in0.0 mm 0.00 in0.0 mm
11:00 AM 47.6°F8.7°C 41.7°F5.4°C 80% 2.3 mph NNE3.7 kmh NNE 3.5 mph5.6 kmh 30.16 in1021.3 mb - 0.00 in0.0 mm 0.00 in0.0 mm
11:10 AM 47.9°F8.8°C 42.3°F5.7°C 81% 2.3 mph N3.7 kmh N 3.5 mph5.6 kmh 30.17 in1021.7 mb - 0.00 in0.0 mm 0.00 in0.0 mm
11:20 AM 48.0°F8.9°C 42.4°F5.8°C 81% 1.2 mph N1.9 kmh N 1.2 mph1.9 kmh 30.17 in1021.7 mb - 0.00 in0.0 mm 0.00 in0.0 mm
11:30 AM 48.2°F9.0°C 42.6°F5.9°C 81% 1.2 mph N1.9 kmh N 2.3 mph3.7 kmh 30.17 in1021.7 mb - 0.00 in0.0 mm 0.00 in0.0 mm
11:40 AM 48.2°F9.0°C 42.6°F5.9°C 81% 1.2 mph N1.9 kmh N 2.3 mph3.7 kmh 30.17 in1021.7 mb - 0.00 in0.0 mm 0.00 in0.0 mm
11:50 AM 48.3°F9.1°C 42.7°F5.9°C 81% 2.3 mph N3.7 kmh N 3.5 mph5.6 kmh 30.17 in1021.7 mb - 0.00 in0.0 mm 0.00 in0.0 mm
12:00 PM 48.1°F8.9°C 42.5°F5.8°C 81% 2.3 mph NNW3.7 kmh NNW 3.5 mph5.6 kmh 30.17 in1021.7 mb - 0.00 in0.0 mm 0.00 in0.0 mm
12:10 PM 48.1°F8.9°C 42.5°F5.8°C 81% 1.2 mph NNW1.9 kmh NNW 3.5 mph5.6 kmh 30.17 in1021.7 mb - 0.00 in0.0 mm 0.00 in0.0 mm
12:20 PM 48.1°F8.9°C 42.5°F5.8°C 81% 1.2 mph NNW1.9 kmh NNW 3.5 mph5.6 kmh 30.17 in1021.7 mb - 0.00 in0.0 mm 0.00 in0.0 mm
12:30 PM 48.3°F9.1°C 42.7°F5.9°C 81% 1.2 mph NNW1.9 kmh NNW 3.5 mph5.6 kmh 30.17 in1021.7 mb - 0.00 in0.0 mm 0.00 in0.0 mm
12:40 PM 48.4°F9.1°C 42.8°F6.0°C 81% 1.2 mph NNW1.9 kmh NNW 2.3 mph3.7 kmh 30.17 in1021.7 mb - 0.00 in0.0 mm 0.00 in0.0 mm
12:50 PM 48.5°F9.2°C 42.6°F5.9°C 80% 1.2 mph NNW1.9 kmh NNW 2.3 mph3.7 kmh 30.17 in1021.7 mb - 0.00 in0.0 mm 0.00 in0.0 mm
01:00 PM 48.6°F9.2°C 42.4°F5.8°C 79% 2.3 mph NW3.7 kmh NW 3.5 mph5.6 kmh 30.17 in1021.7 mb - 0.00 in0.0 mm 0.00 in0.0 mm
01:10 PM 49.1°F9.5°C 42.9°F6.1°C 79% 2.3 mph NW3.7 kmh NW 3.5 mph5.6 kmh 30.17 in1021.7 mb - 0.00 in0.0 mm 0.00 in0.0 mm
01:20 PM 49.1°F9.5°C 42.5°F5.8°C 78% 1.2 mph NW1.9 kmh NW 2.3 mph3.7 kmh 30.17 in1021.7 mb - 0.00 in0.0 mm 0.00 in0.0 mm
01:30 PM 49.6°F9.8°C 42.7°F5.9°C 77% 1.2 mph NW1.9 kmh NW 3.5 mph5.6 kmh 30.16 in1021.3 mb - 0.00 in0.0 mm 0.00 in0.0 mm
01:40 PM 49.7°F9.8°C 42.8°F6.0°C 77% 2.3 mph NW3.7 kmh NW 2.3 mph3.7 kmh 30.16 in1021.3 mb - 0.00 in0.0 mm 0.00 in0.0 mm
01:50 PM 49.8°F9.9°C 42.5°F5.8°C 76% 3.5 mph W5.6 kmh W 3.5 mph5.6 kmh 30.16 in1021.3 mb - 0.00 in0.0 mm 0.00 in0.0 mm
02:00 PM 49.9°F9.9°C 42.3°F5.7°C 75% 1.2 mph W1.9 kmh W 2.3 mph3.7 kmh 30.16 in1021.3 mb - 0.00 in0.0 mm 0.00 in0.0 mm
02:10 PM 50.1°F10.1°C 42.5°F5.8°C 75% 2.3 mph W3.7 kmh W 3.5 mph5.6 kmh 30.16 in1021.3 mb - 0.00 in0.0 mm 0.00 in0.0 mm
02:20 PM 50.3°F10.2°C 42.3°F5.7°C 74% 1.2 mph W1.9 kmh W 3.5 mph5.6 kmh 30.16 in1021.3 mb - 0.00 in0.0 mm 0.00 in0.0 mm
02:30 PM 50.3°F10.2°C 42.0°F5.6°C 73% 2.3 mph W3.7 kmh W 3.5 mph5.6 kmh 30.16 in1021.3 mb - 0.00 in0.0 mm 0.00 in0.0 mm
02:40 PM 50.7°F10.4°C 42.0°F5.6°C 72% Calm Calm 1.2 mph1.9 kmh 30.16 in1021.3 mb - 0.00 in0.0 mm 0.00 in0.0 mm
02:50 PM 50.8°F10.4°C 41.7°F5.4°C 71% 2.3 mph W3.7 kmh W 3.5 mph5.6 kmh 30.16 in1021.3 mb - 0.00 in0.0 mm 0.00 in0.0 mm
03:00 PM 51.1°F10.6°C 42.0°F5.6°C 71% Calm Calm 2.3 mph3.7 kmh 30.15 in1021.0 mb - 0.00 in0.0 mm 0.00 in0.0 mm
03:10 PM 51.2°F10.7°C 41.4°F5.2°C 69% Calm Calm 3.5 mph5.6 kmh 30.16 in1021.3 mb - 0.00 in0.0 mm 0.00 in0.0 mm
03:20 PM 50.9°F10.5°C 40.7°F4.8°C 68% Calm Calm 1.2 mph1.9 kmh 30.16 in1021.3 mb - 0.00 in0.0 mm 0.00 in0.0 mm
03:30 PM 51.1°F10.6°C 40.5°F4.7°C 67% Calm Calm 1.2 mph1.9 kmh 30.15 in1021.0 mb - 0.00 in0.0 mm 0.00 in0.0 mm
03:40 PM 51.2°F10.7°C 41.4°F5.2°C 69% 1.2 mph W1.9 kmh W 2.3 mph3.7 kmh 30.15 in1021.0 mb - 0.00 in0.0 mm 0.00 in0.0 mm
03:50 PM 50.9°F10.5°C 41.1°F5.1°C 69% Calm Calm 1.2 mph1.9 kmh 30.15 in1021.0 mb - 0.00 in0.0 mm 0.00 in0.0 mm
04:00 PM 50.8°F10.4°C 42.5°F5.8°C 73% 2.3 mph ESE3.7 kmh ESE 3.5 mph5.6 kmh 30.15 in1021.0 mb - 0.00 in0.0 mm 0.00 in0.0 mm
04:20 PM 50.7°F10.4°C 42.0°F5.6°C 72% 1.2 mph ESE1.9 kmh ESE 1.2 mph1.9 kmh 30.15 in1021.0 mb - 0.00 in0.0 mm 0.00 in0.0 mm
04:30 PM 50.9°F10.5°C 41.8°F5.4°C 71% 1.2 mph ESE1.9 kmh ESE 3.5 mph5.6 kmh 30.15 in1021.0 mb - 0.00 in0.0 mm 0.00 in0.0 mm
04:40 PM 50.9°F10.5°C 42.2°F5.7°C 72% Calm Calm 3.5 mph5.6 kmh 30.15 in1021.0 mb - 0.00 in0.0 mm 0.00 in0.0 mm
04:50 PM 50.8°F10.4°C 41.7°F5.4°C 71% 1.2 mph ESE1.9 kmh ESE 2.3 mph3.7 kmh 30.15 in1021.0 mb - 0.00 in0.0 mm 0.00 in0.0 mm
05:00 PM 51.1°F10.6°C 41.6°F5.3°C 70% Calm Calm 3.5 mph5.6 kmh 30.15 in1021.0 mb - 0.00 in0.0 mm 0.00 in0.0 mm
05:10 PM 51.3°F10.7°C 42.2°F5.7°C 71% 1.2 mph ESE1.9 kmh ESE 2.3 mph3.7 kmh 30.15 in1021.0 mb - 0.00 in0.0 mm 0.00 in0.0 mm
05:20 PM 51.6°F10.9°C 42.5°F5.8°C 71% 1.2 mph ESE1.9 kmh ESE 3.5 mph5.6 kmh 30.15 in1021.0 mb - 0.00 in0.0 mm 0.00 in0.0 mm
05:30 PM 52.0°F11.1°C 42.8°F6.0°C 71% Calm Calm 3.5 mph5.6 kmh 30.14 in1020.7 mb - 0.00 in0.0 mm 0.00 in0.0 mm
05:40 PM 51.7°F10.9°C 41.8°F5.4°C 69% 2.3 mph ESE3.7 kmh ESE 3.5 mph5.6 kmh 30.14 in1020.7 mb - 0.00 in0.0 mm 0.00 in0.0 mm
05:50 PM 51.8°F11.0°C 41.9°F5.5°C 69% 1.2 mph ESE1.9 kmh ESE 3.5 mph5.6 kmh 30.14 in1020.7 mb - 0.00 in0.0 mm 0.00 in0.0 mm
06:00 PM 52.0°F11.1°C 42.1°F5.6°C 69% 3.5 mph E5.6 kmh E 4.6 mph7.4 kmh 30.14 in1020.7 mb - 0.00 in0.0 mm 0.00 in0.0 mm
06:10 PM 51.5°F10.8°C 41.7°F5.4°C 69% 2.3 mph ESE3.7 kmh ESE 3.5 mph5.6 kmh 30.14 in1020.7 mb - 0.00 in0.0 mm 0.00 in0.0 mm
06:20 PM 51.9°F11.1°C 42.4°F5.8°C 70% Calm Calm 1.2 mph1.9 kmh 30.14 in1020.7 mb - 0.00 in0.0 mm 0.00 in0.0 mm
06:30 PM 51.4°F10.8°C 41.6°F5.3°C 69% 1.2 mph ESE1.9 kmh ESE 2.3 mph3.7 kmh 30.14 in1020.7 mb - 0.00 in0.0 mm 0.00 in0.0 mm
06:40 PM 51.5°F10.8°C 42.0°F5.6°C 70% 1.2 mph ESE1.9 kmh ESE 2.3 mph3.7 kmh 30.14 in1020.7 mb - 0.00 in0.0 mm 0.00 in0.0 mm
06:50 PM 51.2°F10.7°C 41.7°F5.4°C 70% 2.3 mph ESE3.7 kmh ESE 3.5 mph5.6 kmh 30.14 in1020.7 mb - 0.00 in0.0 mm 0.00 in0.0 mm
07:00 PM 51.0°F10.6°C 41.9°F5.5°C 71% 2.3 mph E3.7 kmh E 3.5 mph5.6 kmh 30.14 in1020.7 mb - 0.00 in0.0 mm 0.00 in0.0 mm
07:10 PM 50.5°F10.3°C 41.5°F5.3°C 71% 2.3 mph ESE3.7 kmh ESE 3.5 mph5.6 kmh 30.14 in1020.7 mb - 0.00 in0.0 mm 0.00 in0.0 mm
07:20 PM 50.3°F10.2°C 41.6°F5.3°C 72% 2.3 mph ESE3.7 kmh ESE 3.5 mph5.6 kmh 30.14 in1020.7 mb - 0.00 in0.0 mm 0.00 in0.0 mm
07:30 PM 50.1°F10.1°C 41.4°F5.2°C 72% 2.3 mph ESE3.7 kmh ESE 3.5 mph5.6 kmh 30.14 in1020.7 mb - 0.00 in0.0 mm 0.00 in0.0 mm
07:40 PM 49.5°F9.7°C 41.2°F5.1°C 73% 3.5 mph ESE5.6 kmh ESE 3.5 mph5.6 kmh 30.14 in1020.7 mb - 0.00 in0.0 mm 0.00 in0.0 mm
07:50 PM 49.1°F9.5°C 41.5°F5.3°C 75% 4.6 mph SE7.4 kmh SE 5.8 mph9.3 kmh 30.14 in1020.7 mb - 0.00 in0.0 mm 0.00 in0.0 mm
08:00 PM 48.9°F9.4°C 41.3°F5.2°C 75% 2.3 mph SE3.7 kmh SE 3.5 mph5.6 kmh 30.14 in1020.7 mb - 0.00 in0.0 mm 0.00 in0.0 mm
08:10 PM 48.7°F9.3°C 41.5°F5.3°C 76% 2.3 mph ESE3.7 kmh ESE 3.5 mph5.6 kmh 30.14 in1020.7 mb - 0.00 in0.0 mm 0.00 in0.0 mm
08:20 PM 48.6°F9.2°C 41.4°F5.2°C 76% 3.5 mph ESE5.6 kmh ESE 5.8 mph9.3 kmh 30.14 in1020.7 mb - 0.00 in0.0 mm 0.00 in0.0 mm
08:30 PM 48.5°F9.2°C 41.3°F5.2°C 76% 3.5 mph ESE5.6 kmh ESE 4.6 mph7.4 kmh 30.14 in1020.7 mb - 0.00 in0.0 mm 0.00 in0.0 mm
08:40 PM 48.5°F9.2°C 41.6°F5.3°C 77% 3.5 mph ESE5.6 kmh ESE 6.9 mph11.1 kmh 30.14 in1020.7 mb - 0.00 in0.0 mm 0.00 in0.0 mm
08:50 PM 48.6°F9.2°C 41.4°F5.2°C 76% 3.5 mph ESE5.6 kmh ESE 4.6 mph7.4 kmh 30.13 in1020.3 mb - 0.00 in0.0 mm 0.00 in0.0 mm
09:00 PM 48.4°F9.1°C 41.2°F5.1°C 76% 2.3 mph ESE3.7 kmh ESE 3.5 mph5.6 kmh 30.13 in1020.3 mb - 0.00 in0.0 mm 0.00 in0.0 mm
09:10 PM 48.1°F8.9°C 41.6°F5.3°C 78% 1.2 mph E1.9 kmh E 3.5 mph5.6 kmh 30.13 in1020.3 mb - 0.00 in0.0 mm 0.00 in0.0 mm
09:20 PM 47.9°F8.8°C 41.4°F5.2°C 78% 2.3 mph ESE3.7 kmh ESE 2.3 mph3.7 kmh 30.13 in1020.3 mb - 0.00 in0.0 mm 0.00 in0.0 mm
09:30 PM 47.9°F8.8°C 41.4°F5.2°C 78% 3.5 mph ESE5.6 kmh ESE 3.5 mph5.6 kmh 30.13 in1020.3 mb - 0.00 in0.0 mm 0.00 in0.0 mm
09:40 PM 47.8°F8.8°C 40.9°F4.9°C 77% 1.2 mph SE1.9 kmh SE 3.5 mph5.6 kmh 30.13 in1020.3 mb - 0.00 in0.0 mm 0.00 in0.0 mm
09:50 PM 47.7°F8.7°C 41.2°F5.1°C 78% 2.3 mph E3.7 kmh E 3.5 mph5.6 kmh 30.13 in1020.3 mb - 0.00 in0.0 mm 0.00 in0.0 mm
10:00 PM 47.3°F8.5°C 40.8°F4.9°C 78% 3.5 mph ESE5.6 kmh ESE 4.6 mph7.4 kmh 30.13 in1020.3 mb - 0.00 in0.0 mm 0.00 in0.0 mm
10:10 PM 47.0°F8.3°C 40.5°F4.7°C 78% 3.5 mph ESE5.6 kmh ESE 3.5 mph5.6 kmh 30.13 in1020.3 mb - 0.00 in0.0 mm 0.00 in0.0 mm
10:20 PM 46.8°F8.2°C 40.3°F4.6°C 78% 3.5 mph ESE5.6 kmh ESE 4.6 mph7.4 kmh 30.12 in1020.0 mb - 0.00 in0.0 mm 0.00 in0.0 mm
10:30 PM 46.3°F7.9°C 39.8°F4.3°C 78% 3.5 mph E5.6 kmh E 5.8 mph9.3 kmh 30.12 in1020.0 mb - 0.00 in0.0 mm 0.00 in0.0 mm
10:40 PM 46.3°F7.9°C 39.8°F4.3°C 78% Calm Calm 1.2 mph1.9 kmh 30.12 in1020.0 mb - 0.00 in0.0 mm 0.00 in0.0 mm
10:50 PM 45.8°F7.7°C 39.7°F4.3°C 79% 1.2 mph E1.9 kmh E 3.5 mph5.6 kmh 30.12 in1020.0 mb - 0.00 in0.0 mm 0.00 in0.0 mm
11:00 PM 45.4°F7.4°C 39.3°F4.1°C 79% Calm Calm -- 30.12 in1020.0 mb - 0.00 in0.0 mm 0.00 in0.0 mm
11:10 PM 44.8°F7.1°C 39.0°F3.9°C 80% 1.2 mph ESE1.9 kmh ESE 3.5 mph5.6 kmh 30.12 in1020.0 mb - 0.00 in0.0 mm 0.00 in0.0 mm
11:20 PM 44.7°F7.1°C 39.2°F4.0°C 81% 1.2 mph ESE1.9 kmh ESE 2.3 mph3.7 kmh 30.12 in1020.0 mb - 0.00 in0.0 mm 0.00 in0.0 mm
11:30 PM 44.7°F7.1°C 39.2°F4.0°C 81% 2.3 mph ESE3.7 kmh ESE 3.5 mph5.6 kmh 30.12 in1020.0 mb - 0.00 in0.0 mm 0.00 in0.0 mm
11:40 PM 44.6°F7.0°C 38.8°F3.8°C 80% 4.6 mph ESE7.4 kmh ESE 8.1 mph13.0 kmh 30.12 in1020.0 mb - 0.00 in0.0 mm 0.00 in0.0 mm
11:50 PM 44.6°F7.0°C 38.8°F3.8°C 80% 2.3 mph E3.7 kmh E 3.5 mph5.6 kmh 30.12 in1020.0 mb - 0.00 in0.0 mm 0.00 in0.0 mm